Time;durP1;ratioP1;P1;durP2;ratioP2;P2;SDS_P1;SDS_P2;PMS_P1;PMS_P2;Temp;Humidity;BMP_temperature;BMP_pressure;BME280_temperature;BME280_humidity;BME280_pressure;Samples;Min_cycle;Max_cycle;Signal;HPM_P1;HPM_P2
2023/06/02 00:02:23;;;;;;;268.40;253.33;;;14.10;99.90;;;;;;5072708;28;20813;-83
2023/06/02 00:04:52;;;;;;;188.90;179.10;;;13.80;99.90;;;;;;5069335;28;20174;-84
2023/06/02 00:07:20;;;;;;;223.47;211.77;;;13.60;99.90;;;;;;5054839;28;20441;-85
2023/06/02 00:09:46;;;;;;;334.77;315.37;;;13.50;99.90;;;;;;5064325;28;20420;-84
2023/06/02 00:12:12;;;;;;;318.10;299.60;;;13.50;99.90;;;;;;5061021;28;20453;-84
2023/06/02 00:14:42;;;;;;;289.67;272.93;;;13.50;99.90;;;;;;5070761;28;20266;-85
2023/06/02 00:17:08;;;;;;;298.00;280.47;;;13.40;99.90;;;;;;5073309;28;21033;-83
2023/06/02 00:19:35;;;;;;;313.03;294.43;;;13.70;99.90;;;;;;5069489;28;20438;-84
2023/06/02 00:22:03;;;;;;;242.07;228.20;;;13.40;99.90;;;;;;5060968;28;20436;-82
2023/06/02 00:24:29;;;;;;;253.53;239.43;;;13.50;99.90;;;;;;5067843;28;20408;-84
2023/06/02 00:26:55;;;;;;;386.30;363.57;;;13.70;99.90;;;;;;5065354;28;20432;-83
2023/06/02 00:29:20;;;;;;;203.90;193.30;;;13.70;99.90;;;;;;5067846;28;20443;-83
2023/06/02 00:31:46;;;;;;;386.37;362.93;;;14.30;99.90;;;;;;5063942;28;20178;-83
2023/06/02 00:34:14;;;;;;;381.00;356.90;;;13.60;99.90;;;;;;5067700;28;20473;-84
2023/06/02 00:36:40;;;;;;;394.73;370.07;;;12.40;99.90;;;;;;5064368;28;20202;-83
2023/06/02 00:39:06;;;;;;;359.20;338.03;;;13.70;99.90;;;;;;5067509;28;20895;-84
2023/06/02 00:41:33;;;;;;;291.93;275.17;;;15.20;99.90;;;;;;5067359;28;20527;-84
2023/06/02 00:43:58;;;;;;;121.40;115.27;;;14.40;99.90;;;;;;5066466;28;20444;-84
2023/06/02 00:46:24;;;;;;;270.40;255.23;;;;;;;;;;5066002;28;20436;-85
2023/06/02 00:48:50;;;;;;;252.30;237.77;;;13.60;99.90;;;;;;5063398;28;20365;-84
2023/06/02 00:51:17;;;;;;;365.00;343.10;;;13.60;99.90;;;;;;5066957;28;20516;-83
2023/06/02 00:53:44;;;;;;;285.87;269.67;;;14.20;99.90;;;;;;5064150;28;20249;-83
2023/06/02 00:56:15;;;;;;;441.70;411.53;;;13.50;99.90;;;;;;5066515;28;20461;-83
2023/06/02 00:58:44;;;;;;;417.07;388.17;;;13.30;99.90;;;;;;5073334;28;20959;-84
2023/06/02 01:01:12;;;;;;;294.73;277.43;;;14.00;99.90;;;;;;5072250;28;20797;-84
2023/06/02 01:03:39;;;;;;;265.33;250.23;;;13.80;99.90;;;;;;5063992;28;20532;-83
2023/06/02 01:06:06;;;;;;;266.77;251.17;;;13.00;99.90;;;;;;5067166;28;20437;-84
2023/06/02 01:08:35;;;;;;;286.37;270.27;;;13.20;99.90;;;;;;5064438;28;20437;-83
2023/06/02 01:11:00;;;;;;;315.87;297.37;;;13.10;99.90;;;;;;5066250;28;20429;-84
2023/06/02 01:13:26;;;;;;;292.47;275.20;;;;;;;;;;5065499;28;20451;-84
2023/06/02 01:15:52;;;;;;;333.17;313.30;;;13.30;99.90;;;;;;5076756;28;20210;-84
2023/06/02 01:18:21;;;;;;;428.10;398.10;;;14.30;99.90;;;;;;5063295;28;20803;-83
2023/06/02 01:20:48;;;;;;;417.60;388.53;;;12.50;99.90;;;;;;5082167;28;20678;-84
2023/06/02 01:23:30;;;;;;;454.50;421.50;;;13.00;99.90;;;;;;5060599;28;20440;-84
2023/06/02 01:25:57;;;;;;;434.70;401.20;;;13.00;99.90;;;;;;5053569;28;20424;-83
2023/06/02 01:28:26;;;;;;;438.10;402.80;;;;;;;;;;5063444;28;20437;-83
2023/06/02 01:31:02;;;;;;;470.43;433.80;;;12.90;99.90;;;;;;5067498;28;20421;-83
2023/06/02 01:33:58;;;;;;;444.70;412.07;;;13.20;99.90;;;;;;5083213;28;20503;-83
2023/06/02 01:36:28;;;;;;;439.20;404.50;;;13.10;99.90;;;;;;5074747;28;20461;-84
2023/06/02 01:38:56;;;;;;;734.05;457.13;;;13.50;99.90;;;;;;5090842;28;20954;-84
2023/06/02 01:41:25;;;;;;;723.10;417.60;;;13.00;99.90;;;;;;5084497;28;20284;-84
2023/06/02 01:43:52;;;;;;;270.37;254.33;;;13.50;99.90;;;;;;5071178;28;20557;-84
2023/06/02 01:46:18;;;;;;;215.03;203.03;;;13.10;99.90;;;;;;5067187;28;20470;-84
2023/06/02 01:48:43;;;;;;;280.07;263.73;;;12.90;99.90;;;;;;5063740;28;20444;-84
2023/06/02 01:51:09;;;;;;;310.67;291.60;;;13.00;99.90;;;;;;5077090;28;20984;-84
2023/06/02 01:53:34;;;;;;;417.80;387.70;;;13.40;99.90;;;;;;5077109;28;20182;-84
2023/06/02 01:56:00;;;;;;;309.53;290.67;;;12.90;99.90;;;;;;5076390;28;20198;-84
2023/06/02 01:58:26;;;;;;;336.80;315.93;;;12.90;99.90;;;;;;5057806;28;20237;-84
2023/06/02 02:00:54;;;;;;;451.00;418.97;;;13.90;99.90;;;;;;5067602;28;20435;-83
2023/06/02 02:03:22;;;;;;;462.63;427.93;;;13.00;99.90;;;;;;5063270;28;20194;-83
2023/06/02 02:05:47;;;;;;;470.43;431.07;;;12.70;99.90;;;;;;5065574;28;20439;-83
2023/06/02 02:08:13;;;;;;;719.17;406.00;;;12.60;99.90;;;;;;5062851;28;20444;-83
2023/06/02 02:10:39;;;;;;;730.17;429.30;;;;;;;;;;5069370;28;20178;-84
2023/06/02 02:13:04;;;;;;;454.43;408.97;;;12.80;99.90;;;;;;5064660;28;20194;-84
2023/06/02 02:15:31;;;;;;;528.13;444.93;;;12.30;99.90;;;;;;5069550;28;20465;-82
2023/06/02 02:17:59;;;;;;;710.10;395.55;;;12.80;99.90;;;;;;5068427;28;20224;-83
2023/06/02 02:20:26;;;;;;;694.83;369.25;;;12.70;99.90;;;;;;5075836;28;20193;-82
2023/06/02 02:22:51;;;;;;;424.47;382.47;;;12.60;99.90;;;;;;5059672;28;20221;-83
2023/06/02 02:25:17;;;;;;;424.17;382.77;;;12.50;99.90;;;;;;5071528;28;20428;-85
2023/06/02 02:27:42;;;;;;;406.83;370.77;;;12.70;99.90;;;;;;5064608;28;20278;-84
2023/06/02 02:30:08;;;;;;;424.13;386.33;;;12.40;99.90;;;;;;5080498;28;20587;-84
2023/06/02 02:32:36;;;;;;;400.87;362.70;;;12.40;99.90;;;;;;5060706;28;20668;-83
2023/06/02 02:35:03;;;;;;;403.23;368.77;;;12.70;99.90;;;;;;5079980;28;20515;-84
2023/06/02 02:37:28;;;;;;;419.80;384.67;;;12.50;99.90;;;;;;5061612;28;21041;-84
2023/06/02 02:39:54;;;;;;;398.07;366.10;;;12.40;99.90;;;;;;5064885;28;20445;-85
2023/06/02 02:42:20;;;;;;;389.30;356.27;;;12.40;99.90;;;;;;5060263;28;20239;-85
2023/06/02 02:44:45;;;;;;;396.20;362.73;;;12.30;99.90;;;;;;5079998;28;21048;-84
2023/06/02 02:47:11;;;;;;;419.73;384.30;;;12.40;99.90;;;;;;5061329;28;20233;-82
2023/06/02 02:49:37;;;;;;;407.33;369.27;;;13.10;99.90;;;;;;5065248;28;20551;-84
2023/06/02 02:52:02;;;;;;;411.20;377.33;;;12.40;99.90;;;;;;5060053;28;20284;-84
2023/06/02 02:54:28;;;;;;;370.47;342.67;;;12.30;99.90;;;;;;5065478;28;20261;-81
2023/06/02 02:56:54;;;;;;;445.23;413.97;;;13.70;99.90;;;;;;5061899;28;20237;-83
2023/06/02 02:59:22;;;;;;;376.30;347.07;;;12.40;99.90;;;;;;5080583;28;20166;-84
2023/06/02 03:01:48;;;;;;;514.03;474.43;;;12.20;99.90;;;;;;5066410;28;20187;-84
2023/06/02 03:04:22;;;;;;;386.67;353.10;;;12.40;99.90;;;;;;5078757;28;20485;-84
2023/06/02 03:06:49;;;;;;;519.63;477.57;;;13.10;99.90;;;;;;5058998;28;20458;-83
2023/06/02 03:09:16;;;;;;;298.60;279.37;;;12.30;99.90;;;;;;5070025;28;20495;-85
2023/06/02 03:11:42;;;;;;;445.10;412.20;;;12.30;99.90;;;;;;5069652;28;20451;-84
2023/06/02 03:14:08;;;;;;;397.93;364.33;;;13.00;99.90;;;;;;5056604;28;21145;-82
2023/06/02 03:16:34;;;;;;;423.33;385.13;;;12.50;99.90;;;;;;5058729;28;20827;-83
2023/06/02 03:19:02;;;;;;;437.40;395.23;;;13.10;99.90;;;;;;5055387;28;20478;-83
2023/06/02 03:21:31;;;;;;;436.33;392.47;;;12.50;99.90;;;;;;5056285;28;20433;-85
2023/06/02 03:24:00;;;;;;;446.90;404.97;;;13.20;99.90;;;;;;5048359;28;20971;-84
2023/06/02 03:26:26;;;;;;;454.80;406.07;;;;;;;;;;5065033;28;20482;-83
2023/06/02 03:28:55;;;;;;;519.43;419.93;;;12.10;99.90;;;;;;5081767;28;20430;-86
2023/06/02 03:31:24;;;;;;;487.00;389.17;;;13.50;99.90;;;;;;5078024;28;20448;-83
2023/06/02 03:33:52;;;;;;;515.33;389.97;;;13.20;99.90;;;;;;5051005;28;20486;-84
2023/06/02 03:36:19;;;;;;;464.87;376.10;;;12.40;99.90;;;;;;5055558;28;20971;-84
2023/06/02 03:38:45;;;;;;;458.53;385.33;;;12.50;99.90;;;;;;5053044;28;20465;-83
2023/06/02 03:41:11;;;;;;;403.43;364.23;;;13.90;99.90;;;;;;5058606;28;20425;-82
2023/06/02 03:43:36;;;;;;;512.63;408.60;;;12.40;99.90;;;;;;5057909;28;20513;-83
2023/06/02 03:46:02;;;;;;;508.57;400.13;;;13.30;99.90;;;;;;5059379;28;20910;-82
2023/06/02 03:48:27;;;;;;;576.77;417.20;;;13.10;99.90;;;;;;5053004;28;20214;-84
2023/06/02 03:50:53;;;;;;;705.77;370.30;;;12.60;99.90;;;;;;5060694;28;20198;-83
2023/06/02 03:53:18;;;;;;;9.37;8.80;;;12.70;99.90;;;;;;5059992;28;20563;-83
2023/06/02 03:55:44;;;;;;;12.73;9.53;;;12.70;99.90;;;;;;5068977;28;20545;-83
2023/06/02 03:58:12;;;;;;;9.87;8.77;;;12.90;99.90;;;;;;5066494;28;20190;-83
2023/06/02 04:00:38;;;;;;;11.17;8.47;;;12.00;99.90;;;;;;5078224;28;20795;-84
2023/06/02 04:03:04;;;;;;;10.77;8.77;;;12.80;99.90;;;;;;5065864;28;20432;-83
2023/06/02 04:05:30;;;;;;;9.93;9.03;;;14.10;99.90;;;;;;5079068;28;20190;-85
2023/06/02 04:07:58;;;;;;;15.70;13.77;;;14.50;99.90;;;;;;5070284;28;20442;-84
2023/06/02 04:10:24;;;;;;;15.23;12.77;;;12.30;99.90;;;;;;5063838;28;20198;-83
2023/06/02 04:12:50;;;;;;;15.83;13.43;;;12.60;99.90;;;;;;5073956;28;20993;-82
2023/06/02 04:15:15;;;;;;;13.83;12.23;;;12.70;99.90;;;;;;5070694;28;20466;-83
2023/06/02 04:17:41;;;;;;;16.07;12.37;;;12.50;99.90;;;;;;5068309;28;20186;-84
2023/06/02 04:20:07;;;;;;;15.00;13.10;;;14.60;99.90;;;;;;5057451;28;20252;-83
2023/06/02 04:22:34;;;;;;;16.57;13.70;;;12.60;99.90;;;;;;5065301;28;20491;-84
2023/06/02 04:25:00;;;;;;;17.60;13.67;;;13.30;99.90;;;;;;5065052;28;20460;-82
2023/06/02 04:27:25;;;;;;;15.97;14.47;;;13.60;99.90;;;;;;5067590;28;20822;-83
2023/06/02 04:29:51;;;;;;;13.07;11.90;;;14.20;99.90;;;;;;5063126;28;20558;-83
2023/06/02 04:32:17;;;;;;;17.10;15.10;;;14.50;99.90;;;;;;5067632;28;20170;-83
2023/06/02 04:34:42;;;;;;;13.40;12.30;;;13.00;99.90;;;;;;5064923;28;21207;-85
2023/06/02 04:37:08;;;;;;;16.30;13.97;;;12.70;99.90;;;;;;5067079;28;20222;-83
2023/06/02 04:39:36;;;;;;;14.83;13.43;;;14.00;99.90;;;;;;5064340;28;20179;-83
2023/06/02 04:42:03;;;;;;;17.73;15.87;;;14.60;99.90;;;;;;5067513;28;20182;-84
2023/06/02 04:44:29;;;;;;;16.77;15.20;;;13.00;99.90;;;;;;5064304;28;20452;-82
2023/06/02 04:46:55;;;;;;;15.63;14.10;;;;;;;;;;5061529;28;20434;-84
2023/06/02 04:49:21;;;;;;;16.60;14.90;;;12.90;99.90;;;;;;5063524;28;20440;-84
2023/06/02 04:51:46;;;;;;;21.33;15.00;;;13.80;99.90;;;;;;5061141;28;20433;-83
2023/06/02 04:54:15;;;;;;;15.87;14.20;;;12.90;99.90;;;;;;5072383;28;20436;-83
2023/06/02 04:56:40;;;;;;;15.40;14.07;;;12.80;99.90;;;;;;5075683;28;20734;-83
2023/06/02 04:59:07;;;;;;;20.27;12.73;;;13.10;99.90;;;;;;5074050;28;20432;-83
2023/06/02 05:01:33;;;;;;;14.10;11.67;;;13.30;99.90;;;;;;5069858;28;20688;-84
2023/06/02 05:03:58;;;;;;;14.40;13.20;;;13.20;99.90;;;;;;5065461;28;20425;-83
2023/06/02 05:06:24;;;;;;;13.47;12.03;;;13.20;99.90;;;;;;5067361;28;20427;-83
2023/06/02 05:08:53;;;;;;;18.10;12.47;;;13.00;99.90;;;;;;5062251;28;20205;-84
2023/06/02 05:11:18;;;;;;;19.47;11.60;;;12.90;99.90;;;;;;5077356;28;20175;-84
2023/06/02 05:13:45;;;;;;;13.57;12.37;;;12.90;99.90;;;;;;5065479;28;20838;-84
2023/06/02 05:16:10;;;;;;;14.07;12.10;;;13.10;99.90;;;;;;5074329;28;20563;-83
2023/06/02 05:18:36;;;;;;;14.00;12.90;;;13.10;99.90;;;;;;5076485;28;20432;-82
2023/06/02 05:21:02;;;;;;;15.97;14.53;;;13.00;99.90;;;;;;5089339;28;20166;-83
2023/06/02 05:23:27;;;;;;;27.43;25.07;;;13.20;99.90;;;;;;5095578;28;20210;-83
2023/06/02 05:25:53;;;;;;;16.10;12.93;;;;;;;;;;5084251;28;20182;-83
2023/06/02 05:28:19;;;;;;;17.60;15.87;;;13.30;99.80;;;;;;5079346;28;20196;-83
2023/06/02 05:30:45;;;;;;;17.13;12.03;;;;;;;;;;5067710;28;20417;-83
2023/06/02 05:33:10;;;;;;;17.03;11.83;;;13.30;99.80;;;;;;5079987;28;20192;-85
2023/06/02 05:35:36;;;;;;;14.93;13.33;;;14.00;99.90;;;;;;5068876;28;20476;-84
2023/06/02 05:38:01;;;;;;;11.47;10.40;;;13.40;99.90;;;;;;5067846;28;20557;-84
2023/06/02 05:40:27;;;;;;;12.97;11.57;;;13.90;99.90;;;;;;5068887;28;20193;-83
2023/06/02 05:42:53;;;;;;;17.17;13.03;;;13.40;99.90;;;;;;5067835;28;20198;-83
2023/06/02 05:45:18;;;;;;;13.07;11.67;;;13.60;99.90;;;;;;5054439;28;20190;-83
2023/06/02 05:47:45;;;;;;;17.67;12.23;;;14.80;99.90;;;;;;5058503;28;20217;-85
2023/06/02 05:50:11;;;;;;;14.10;11.00;;;13.50;99.90;;;;;;5064658;28;20200;-82
2023/06/02 05:52:37;;;;;;;16.63;11.43;;;14.50;99.90;;;;;;5072165;28;20787;-83
2023/06/02 05:55:02;;;;;;;10.53;9.57;;;14.90;99.90;;;;;;5061846;28;20525;-81
2023/06/02 05:57:28;;;;;;;9.97;7.93;;;13.80;99.90;;;;;;5075205;28;20551;-83
2023/06/02 05:59:53;;;;;;;7.23;6.63;;;14.00;98.90;;;;;;5068997;28;20198;-84
2023/06/02 06:02:19;;;;;;;8.80;8.00;;;;;;;;;;5065318;28;20570;-84
2023/06/02 06:04:45;;;;;;;17.13;13.20;;;13.80;97.50;;;;;;5071229;28;20190;-82
2023/06/02 06:07:10;;;;;;;12.07;10.00;;;13.70;99.90;;;;;;5066551;28;20509;-83
2023/06/02 06:09:36;;;;;;;27.27;25.10;;;;;;;;;;5070474;28;20193;-82
2023/06/02 06:12:02;;;;;;;12.17;9.23;;;13.90;98.20;;;;;;5063997;28;20240;-83
2023/06/02 06:14:28;;;;;;;13.07;10.27;;;13.80;99.90;;;;;;5068010;28;20866;-83
2023/06/02 06:16:53;;;;;;;11.50;9.57;;;13.90;99.50;;;;;;5064374;28;20289;-81
2023/06/02 06:19:19;;;;;;;16.30;8.40;;;15.50;99.90;;;;;;5065492;28;20194;-82
2023/06/02 06:21:45;;;;;;;7.57;5.93;;;13.90;97.30;;;;;;5070942;28;20687;-82
2023/06/02 06:24:10;;;;;;;10.83;7.57;;;14.00;98.70;;;;;;5063583;28;20241;-83
2023/06/02 06:26:36;;;;;;;15.37;8.23;;;13.40;99.90;;;;;;5056708;28;20205;-81
2023/06/02 06:29:03;;;;;;;13.40;8.27;;;13.60;99.90;;;;;;5055372;28;20187;-83
2023/06/02 06:31:29;;;;;;;10.17;7.00;;;13.80;99.90;;;;;;5061397;28;20198;-82
2023/06/02 06:33:54;;;;;;;12.30;10.37;;;13.90;99.90;;;;;;5076150;28;20417;-81
2023/06/02 06:36:20;;;;;;;12.50;10.23;;;14.10;99.90;;;;;;5057715;28;20229;-83
2023/06/02 06:38:45;;;;;;;13.80;8.57;;;14.90;99.90;;;;;;5069340;28;20219;-83
2023/06/02 06:41:11;;;;;;;6.50;5.93;;;14.90;98.10;;;;;;5065360;28;20623;-81
2023/06/02 06:43:37;;;;;;;11.60;10.23;;;14.80;98.00;;;;;;5061321;28;20183;-82
2023/06/02 06:46:03;;;;;;;23.20;21.03;;;14.20;99.90;;;;;;5060693;28;20199;-81
2023/06/02 06:48:28;;;;;;;14.63;8.87;;;14.30;99.20;;;;;;5060744;28;20752;-80
2023/06/02 06:50:54;;;;;;;14.43;12.50;;;15.90;99.20;;;;;;5056769;28;20190;-83
2023/06/02 06:53:20;;;;;;;9.10;8.33;;;14.00;99.90;;;;;;5055938;28;20191;-83
2023/06/02 06:55:47;;;;;;;7.10;6.60;;;14.80;98.40;;;;;;5065723;28;20198;-82
2023/06/02 06:58:13;;;;;;;9.03;7.87;;;14.60;98.40;;;;;;5059598;28;20191;-84
2023/06/02 07:00:39;;;;;;;10.43;9.63;;;;;;;;;;5065569;28;20453;-81
2023/06/02 07:03:05;;;;;;;41.77;14.53;;;14.60;99.90;;;;;;5054088;28;20206;-84
2023/06/02 07:05:31;;;;;;;15.97;8.73;;;;;;;;;;5065046;28;20439;-86
2023/06/02 07:07:56;;;;;;;10.90;8.00;;;14.60;94.90;;;;;;5055800;28;20195;-83
2023/06/02 07:10:23;;;;;;;12.87;11.53;;;15.80;97.90;;;;;;5069621;28;20464;-86
2023/06/02 07:12:48;;;;;;;8.80;7.80;;;14.40;97.40;;;;;;5065749;28;20202;-85
2023/06/02 07:15:15;;;;;;;13.03;8.23;;;;;;;;;;5062513;28;20457;-79
2023/06/02 07:17:41;;;;;;;8.13;7.37;;;14.60;94.00;;;;;;5081687;28;20445;-79
2023/06/02 07:20:11;;;;;;;8.20;7.40;;;15.10;97.20;;;;;;5077576;28;20441;-78
2023/06/02 07:22:37;;;;;;;8.80;8.03;;;;;;;;;;5063436;28;20429;-80
2023/06/02 07:25:06;;;;;;;16.27;8.80;;;15.10;93.60;;;;;;5072819;28;20429;-84
2023/06/02 07:27:32;;;;;;;8.10;7.40;;;15.00;94.50;;;;;;5049699;28;20434;-84
2023/06/02 07:29:58;;;;;;;12.77;10.57;;;15.20;94.80;;;;;;5059423;28;21032;-84
2023/06/02 07:32:24;;;;;;;9.03;7.70;;;15.00;95.40;;;;;;5065885;28;20585;-82
2023/06/02 07:34:50;;;;;;;16.43;9.40;;;15.50;96.00;;;;;;5063747;28;20858;-87
2023/06/02 07:37:16;;;;;;;14.40;12.07;;;16.40;96.40;;;;;;5068909;28;20483;-82
2023/06/02 07:39:41;;;;;;;10.67;9.33;;;15.00;95.20;;;;;;5073315;28;20697;-81
2023/06/02 07:42:07;;;;;;;10.67;8.63;;;15.70;94.00;;;;;;5063166;28;20459;-80
2023/06/02 07:44:32;;;;;;;10.80;8.90;;;15.10;95.30;;;;;;5069224;28;20197;-83
2023/06/02 07:47:01;;;;;;;20.10;18.20;;;15.00;94.80;;;;;;5064488;28;20379;-82
2023/06/02 07:49:26;;;;;;;8.03;7.53;;;15.60;99.90;;;;;;5071522;28;20608;-84
2023/06/02 07:51:52;;;;;;;11.30;9.93;;;16.20;94.40;;;;;;5071984;28;20761;-85
2023/06/02 07:54:17;;;;;;;8.37;7.57;;;15.90;92.50;;;;;;5066276;28;20214;-83
2023/06/02 07:56:43;;;;;;;9.20;7.47;;;16.30;92.40;;;;;;5074185;28;20295;-85
2023/06/02 07:59:12;;;;;;;8.80;8.13;;;16.40;93.00;;;;;;5074572;28;20182;-86
2023/06/02 08:01:40;;;;;;;6.53;5.90;;;15.90;99.90;;;;;;5070908;28;20244;-86
2023/06/02 08:04:06;;;;;;;11.13;10.13;;;16.30;99.90;;;;;;5075165;28;20577;-85
2023/06/02 08:06:32;;;;;;;10.93;8.37;;;16.30;92.90;;;;;;5074470;28;20854;-84
2023/06/02 08:08:58;;;;;;;15.73;12.30;;;;;;;;;;5071154;28;20554;-85
2023/06/02 08:11:24;;;;;;;10.30;8.07;;;16.20;90.80;;;;;;5066056;28;20534;-85
2023/06/02 08:13:50;;;;;;;13.97;11.50;;;16.40;93.20;;;;;;5066921;28;20425;-85
2023/06/02 08:16:15;;;;;;;11.53;7.60;;;15.90;93.60;;;;;;5061311;28;20470;-83
2023/06/02 08:18:41;;;;;;;11.30;10.40;;;16.60;92.70;;;;;;5064444;28;20179;-85
2023/06/02 08:21:07;;;;;;;9.73;8.93;;;16.20;93.90;;;;;;5063810;28;20282;-84
2023/06/02 08:23:32;;;;;;;10.50;9.60;;;16.00;93.00;;;;;;5063948;28;20270;-85
2023/06/02 08:26:00;;;;;;;10.50;9.43;;;16.30;93.10;;;;;;5069718;28;20183;-86
2023/06/02 08:28:27;;;;;;;9.93;8.60;;;17.80;93.30;;;;;;5076823;28;20194;-81
2023/06/02 08:30:58;;;;;;;29.57;27.10;;;16.50;90.30;;;;;;5069148;28;20568;-84
2023/06/02 08:33:24;;;;;;;9.00;8.40;;;17.20;91.40;;;;;;5069143;28;20417;-85
2023/06/02 08:35:51;;;;;;;27.77;25.23;;;16.80;99.90;;;;;;5065973;28;20448;-84
2023/06/02 08:38:17;;;;;;;8.73;7.40;;;17.50;89.90;;;;;;5067317;28;20453;-84
2023/06/02 08:40:46;;;;;;;16.57;15.20;;;16.90;86.20;;;;;;5079662;28;20459;-83
2023/06/02 08:43:13;;;;;;;10.17;7.70;;;16.90;86.00;;;;;;5063712;28;20668;-83
2023/06/02 08:45:46;;;;;;;9.60;8.50;;;17.90;88.70;;;;;;5058528;28;20473;-82
2023/06/02 08:48:17;;;;;;;11.30;10.20;;;18.80;87.20;;;;;;5071977;28;20417;-84
2023/06/02 08:50:50;;;;;;;34.90;31.80;;;17.70;99.50;;;;;;5067754;28;20441;-82
2023/06/02 08:53:16;;;;;;;13.10;12.00;;;18.80;86.50;;;;;;5063035;28;20781;-81
2023/06/02 08:55:42;;;;;;;13.23;11.70;;;;;;;;;;5062181;28;20472;-83
2023/06/02 08:58:11;;;;;;;10.87;7.23;;;16.80;78.80;;;;;;5074054;28;21224;-85
2023/06/02 09:00:38;;;;;;;17.90;10.37;;;17.90;99.00;;;;;;5067114;28;20445;-84
2023/06/02 09:03:04;;;;;;;10.73;9.93;;;18.30;96.30;;;;;;5069651;28;20497;-83
2023/06/02 09:05:32;;;;;;;9.50;7.93;;;18.60;78.90;;;;;;5062704;28;20440;-82
2023/06/02 09:08:11;;;;;;;9.53;8.50;;;21.00;77.20;;;;;;5070526;28;20440;-83
2023/06/02 09:10:41;;;;;;;10.17;9.13;;;20.70;65.00;;;;;;5087411;28;20446;-84
2023/06/02 09:13:27;;;;;;;16.87;15.23;;;21.50;62.80;;;;;;5090830;28;20443;-86
2023/06/02 09:15:56;;;;;;;9.70;8.73;;;23.20;59.00;;;;;;5075926;28;20500;-84
2023/06/02 09:20:58;;;;;;;5.77;5.37;;;23.50;53.50;;;;;;5087706;28;20563;-82
2023/06/02 09:23:40;;;;;;;6.70;6.00;;;24.60;52.20;;;;;;5075243;28;20428;-83
2023/06/02 09:26:25;;;;;;;13.03;5.70;;;24.80;50.70;;;;;;5086650;28;20436;-83
2023/06/02 09:29:18;;;;;;;5.80;5.30;;;24.40;50.40;;;;;;5081263;28;20412;-85
2023/06/02 09:31:48;;;;;;;4.90;4.60;;;25.60;49.60;;;;;;5083554;28;20471;-82
2023/06/02 09:34:15;;;;;;;9.30;5.33;;;26.20;48.50;;;;;;5083430;28;20412;-84
2023/06/02 09:36:42;;;;;;;8.40;4.40;;;27.50;46.70;;;;;;5088762;28;20431;-83
2023/06/02 09:39:11;;;;;;;4.90;4.50;;;26.80;45.00;;;;;;5098809;28;20828;-85
2023/06/02 09:41:40;;;;;;;5.07;4.60;;;26.80;45.50;;;;;;5097730;28;20458;-84
2023/06/02 09:44:16;;;;;;;5.50;4.37;;;26.60;45.20;;;;;;5085923;28;20447;-83
2023/06/02 09:46:44;;;;;;;4.50;4.20;;;25.10;45.00;;;;;;5097351;28;20500;-84
2023/06/02 09:49:10;;;;;;;6.73;4.37;;;24.50;46.20;;;;;;5086360;28;20464;-81
2023/06/02 09:51:38;;;;;;;4.67;4.37;;;23.60;46.20;;;;;;5088975;28;20438;-82
2023/06/02 09:54:04;;;;;;;11.43;5.47;;;23.00;47.10;;;;;;5074229;28;20483;-84
2023/06/02 09:56:34;;;;;;;9.30;5.40;;;24.00;46.90;;;;;;5098437;28;20478;-85
2023/06/02 09:59:00;;;;;;;4.57;4.23;;;24.10;47.00;;;;;;5086526;28;20496;-82
2023/06/02 10:01:26;;;;;;;6.30;4.90;;;23.90;46.80;;;;;;5098924;28;20444;-85
2023/06/02 10:03:52;;;;;;;9.00;5.07;;;23.70;47.60;;;;;;5080394;28;20429;-86
2023/06/02 10:06:51;;;;;;;6.77;4.80;;;23.20;47.60;;;;;;5074870;28;20223;-86
2023/06/02 10:09:58;;;;;;;4.93;4.53;;;23.20;48.10;;;;;;5070729;28;20202;-83
2023/06/02 10:12:26;;;;;;;5.67;5.27;;;23.70;47.90;;;;;;5080155;28;20417;-86
2023/06/02 10:15:16;;;;;;;7.53;5.03;;;22.40;47.90;;;;;;5074810;28;20437;-83
2023/06/02 10:17:47;;;;;;;5.73;4.97;;;22.10;48.80;;;;;;5076101;28;20421;-79
2023/06/02 10:20:34;;;;;;;6.60;6.00;;;22.60;48.90;;;;;;5087000;28;20479;-82
2023/06/02 10:23:10;;;;;;;6.20;5.60;;;22.30;49.50;;;;;;5080953;28;20441;-81
2023/06/02 10:25:50;;;;;;;8.40;7.20;;;22.40;49.70;;;;;;5080470;28;20427;-81
2023/06/02 10:28:16;;;;;;;10.40;5.23;;;22.90;49.60;;;;;;5082153;28;20827;-80
2023/06/02 10:30:42;;;;;;;5.77;4.87;;;23.60;49.10;;;;;;5070863;28;20445;-81
2023/06/02 10:33:08;;;;;;;8.37;5.00;;;24.30;48.70;;;;;;5056474;28;20987;-81
2023/06/02 10:35:59;;;;;;;8.83;5.43;;;24.70;48.00;;;;;;5057854;28;20179;-81
2023/06/02 10:38:27;;;;;;;5.77;4.90;;;23.40;48.50;;;;;;5061121;28;20191;-83
2023/06/02 10:40:53;;;;;;;5.90;5.40;;;23.20;49.60;;;;;;5059770;28;20433;-81
2023/06/02 10:43:18;;;;;;;6.00;5.50;;;22.80;49.70;;;;;;5069817;28;20427;-82
2023/06/02 10:45:44;;;;;;;6.70;6.00;;;23.30;49.70;;;;;;5070255;28;20194;-84
2023/06/02 10:48:36;;;;;;;8.07;5.63;;;23.30;49.40;;;;;;5069984;28;20207;-81
2023/06/02 10:51:02;;;;;;;9.50;6.60;;;24.20;49.10;;;;;;5067157;28;20186;-81
2023/06/02 10:53:28;;;;;;;6.83;6.20;;;25.00;48.30;;;;;;5059150;28;20452;-82
2023/06/02 10:55:54;;;;;;;6.00;5.50;;;25.00;48.30;;;;;;5057405;28;20437;-83
2023/06/02 10:58:21;;;;;;;7.10;5.10;;;25.60;47.60;;;;;;5057326;28;20444;-82
2023/06/02 11:00:49;;;;;;;7.10;5.60;;;26.80;47.30;;;;;;5062609;28;20222;-82
2023/06/02 11:03:15;;;;;;;6.60;5.60;;;27.90;46.20;;;;;;5084486;28;20701;-82
2023/06/02 11:05:41;;;;;;;5.90;5.40;;;27.90;45.60;;;;;;5091292;28;20650;-83
2023/06/02 11:08:18;;;;;;;10.40;5.00;;;27.80;45.40;;;;;;5071466;28;20277;-81
2023/06/02 11:10:58;;;;;;;5.67;5.27;;;27.50;45.60;;;;;;5060587;28;20419;-81
2023/06/02 11:13:25;;;;;;;10.17;7.23;;;28.30;45.00;;;;;;5067384;28;20427;-82
2023/06/02 11:15:59;;;;;;;6.67;6.07;;;27.30;45.00;;;;;;5067584;28;20932;-80
2023/06/02 11:18:33;;;;;;;7.83;6.33;;;25.20;46.40;;;;;;5064601;28;20841;-83
2023/06/02 11:21:15;;;;;;;8.60;7.90;;;25.60;46.80;;;;;;5065252;28;20424;-80
2023/06/02 11:23:44;;;;;;;10.07;7.30;;;26.00;46.80;;;;;;5060166;28;20445;-83
2023/06/02 11:26:20;;;;;;;7.10;6.43;;;26.80;46.10;;;;;;5068116;28;20429;-81
2023/06/02 11:28:47;;;;;;;7.87;7.10;;;26.80;46.20;;;;;;5064060;28;20419;-83
2023/06/02 11:31:14;;;;;;;10.33;7.27;;;26.80;45.90;;;;;;5055869;28;20486;-82
2023/06/02 11:33:52;;;;;;;7.60;6.97;;;26.40;46.20;;;;;;5070634;28;20434;-82
2023/06/02 11:36:38;;;;;;;7.83;7.13;;;25.70;46.60;;;;;;5058756;28;20424;-82
2023/06/02 11:39:06;;;;;;;8.70;7.57;;;25.60;46.70;;;;;;5051598;28;20473;-80
2023/06/02 11:41:32;;;;;;;10.33;9.33;;;25.60;47.30;;;;;;5068832;28;20463;-86
2023/06/02 11:44:14;;;;;;;7.10;6.27;;;25.60;46.80;;;;;;5056208;28;20409;-83
2023/06/02 11:46:45;;;;;;;8.03;7.03;;;25.90;47.40;;;;;;5056307;28;20569;-82
2023/06/02 11:49:11;;;;;;;8.03;7.00;;;27.10;46.30;;;;;;5061094;28;20429;-84
2023/06/02 11:51:37;;;;;;;7.90;7.20;;;27.70;45.80;;;;;;5068927;28;20438;-85
2023/06/02 11:54:04;;;;;;;8.43;7.27;;;27.00;45.80;;;;;;5069572;28;20175;-85
2023/06/02 11:56:31;;;;;;;9.77;7.00;;;25.10;47.00;;;;;;5065795;28;20564;-84
2023/06/02 11:58:57;;;;;;;8.70;6.00;;;26.30;46.60;;;;;;5061217;28;20452;-83
2023/06/02 12:01:23;;;;;;;8.40;6.90;;;26.80;46.70;;;;;;5066882;28;20433;-84
2023/06/02 12:04:05;;;;;;;7.30;6.37;;;27.30;45.90;;;;;;5069440;28;20356;-87
2023/06/02 12:06:36;;;;;;;7.40;6.80;;;28.00;45.60;;;;;;5066521;28;20968;-86
2023/06/02 12:09:11;;;;;;;7.90;6.93;;;26.30;45.70;;;;;;5071094;28;20934;-88
2023/06/02 12:11:37;;;;;;;8.27;7.47;;;25.40;47.00;;;;;;5058346;28;20444;-83
2023/06/02 12:14:05;;;;;;;10.40;7.60;;;25.40;46.90;;;;;;5066052;28;20414;-85
2023/06/02 12:16:31;;;;;;;12.33;7.17;;;24.90;47.90;;;;;;5071677;28;20536;-87
2023/06/02 12:19:19;;;;;;;8.87;7.10;;;24.50;48.40;;;;;;5064596;28;20500;-85
2023/06/02 12:21:46;;;;;;;7.90;7.20;;;25.40;48.30;;;;;;5054572;28;20513;-78
2023/06/02 12:24:28;;;;;;;7.27;6.77;;;25.40;47.80;;;;;;5058141;28;20520;-85
2023/06/02 12:26:53;;;;;;;12.33;7.67;;;25.90;47.50;;;;;;5051533;28;20548;-85
2023/06/02 12:29:19;;;;;;;8.27;7.57;;;26.30;47.20;;;;;;5067842;28;20441;-80
2023/06/02 12:31:44;;;;;;;7.67;6.97;;;26.60;46.90;;;;;;5065401;28;20259;-81
2023/06/02 12:34:10;;;;;;;8.27;7.27;;;26.50;46.60;;;;;;5059079;28;20214;-84
2023/06/02 12:36:35;;;;;;;6.90;6.40;;;25.80;47.50;;;;;;5054540;28;20753;-84
2023/06/02 12:39:04;;;;;;;13.43;6.87;;;26.50;47.00;;;;;;5069773;28;20591;-85
2023/06/02 12:41:30;;;;;;;7.33;6.63;;;26.40;47.20;;;;;;5069913;28;20296;-83